sensor_id;sensor_type;location;lat;lon;timestamp;P1;durP1;ratioP1;P2;durP2;ratioP2
59585;SDS011;45408;52.686;7.310;2024-02-21T00:01:15;24.63;;;10.98;;
59585;SDS011;45408;52.686;7.310;2024-02-21T00:03:42;32.17;;;11.38;;
59585;SDS011;45408;52.686;7.310;2024-02-21T00:06:09;34.75;;;12.60;;
59585;SDS011;45408;52.686;7.310;2024-02-21T00:08:35;26.65;;;11.27;;
59585;SDS011;45408;52.686;7.310;2024-02-21T00:11:03;37.33;;;15.98;;
59585;SDS011;45408;52.686;7.310;2024-02-21T00:13:30;34.63;;;14.43;;
59585;SDS011;45408;52.686;7.310;2024-02-21T00:15:56;34.88;;;11.10;;
59585;SDS011;45408;52.686;7.310;2024-02-21T00:18:23;35.72;;;13.32;;
59585;SDS011;45408;52.686;7.310;2024-02-21T00:20:55;37.83;;;14.25;;
59585;SDS011;45408;52.686;7.310;2024-02-21T00:23:22;34.03;;;13.07;;
59585;SDS011;45408;52.686;7.310;2024-02-21T00:25:48;36.40;;;11.88;;
59585;SDS011;45408;52.686;7.310;2024-02-21T00:28:15;27.40;;;10.77;;
59585;SDS011;45408;52.686;7.310;2024-02-21T00:30:41;25.88;;;12.38;;
59585;SDS011;45408;52.686;7.310;2024-02-21T00:33:08;31.95;;;15.02;;
59585;SDS011;45408;52.686;7.310;2024-02-21T00:35:34;38.90;;;15.50;;
59585;SDS011;45408;52.686;7.310;2024-02-21T00:38:01;26.42;;;11.48;;
59585;SDS011;45408;52.686;7.310;2024-02-21T00:40:29;44.63;;;18.13;;
59585;SDS011;45408;52.686;7.310;2024-02-21T00:42:56;40.05;;;17.17;;
59585;SDS011;45408;52.686;7.310;2024-02-21T00:45:22;39.88;;;16.25;;
59585;SDS011;45408;52.686;7.310;2024-02-21T00:47:49;52.92;;;23.08;;
59585;SDS011;45408;52.686;7.310;2024-02-21T00:50:16;40.80;;;15.73;;
59585;SDS011;45408;52.686;7.310;2024-02-21T00:52:42;34.35;;;16.95;;
59585;SDS011;45408;52.686;7.310;2024-02-21T00:55:09;34.50;;;15.93;;
59585;SDS011;45408;52.686;7.310;2024-02-21T00:57:36;31.15;;;12.23;;
59585;SDS011;45408;52.686;7.310;2024-02-21T01:00:03;33.40;;;14.07;;
59585;SDS011;45408;52.686;7.310;2024-02-21T01:02:30;30.17;;;14.13;;
59585;SDS011;45408;52.686;7.310;2024-02-21T01:05:00;29.90;;;12.93;;
59585;SDS011;45408;52.686;7.310;2024-02-21T01:07:26;46.50;;;15.93;;
59585;SDS011;45408;52.686;7.310;2024-02-21T01:09:53;23.48;;;9.50;;
59585;SDS011;45408;52.686;7.310;2024-02-21T01:12:20;31.02;;;12.75;;
59585;SDS011;45408;52.686;7.310;2024-02-21T01:14:46;31.55;;;14.18;;
59585;SDS011;45408;52.686;7.310;2024-02-21T01:17:13;24.58;;;12.38;;
59585;SDS011;45408;52.686;7.310;2024-02-21T01:19:39;32.30;;;13.15;;
59585;SDS011;45408;52.686;7.310;2024-02-21T01:22:06;28.85;;;13.18;;
59585;SDS011;45408;52.686;7.310;2024-02-21T01:24:33;31.38;;;14.27;;
59585;SDS011;45408;52.686;7.310;2024-02-21T01:26:59;43.28;;;17.13;;
59585;SDS011;45408;52.686;7.310;2024-02-21T01:29:26;43.80;;;14.38;;
59585;SDS011;45408;52.686;7.310;2024-02-21T01:31:52;31.63;;;12.68;;
59585;SDS011;45408;52.686;7.310;2024-02-21T01:34:19;31.92;;;11.45;;
59585;SDS011;45408;52.686;7.310;2024-02-21T01:36:45;28.30;;;12.65;;
59585;SDS011;45408;52.686;7.310;2024-02-21T01:39:12;23.95;;;12.15;;
59585;SDS011;45408;52.686;7.310;2024-02-21T01:41:38;39.88;;;15.40;;
59585;SDS011;45408;52.686;7.310;2024-02-21T01:44:05;33.47;;;13.85;;
59585;SDS011;45408;52.686;7.310;2024-02-21T01:46:31;21.65;;;10.05;;
59585;SDS011;45408;52.686;7.310;2024-02-21T01:48:58;29.77;;;11.55;;
59585;SDS011;45408;52.686;7.310;2024-02-21T01:51:25;30.65;;;13.13;;
59585;SDS011;45408;52.686;7.310;2024-02-21T01:53:52;32.97;;;12.77;;
59585;SDS011;45408;52.686;7.310;2024-02-21T01:56:19;23.38;;;11.88;;
59585;SDS011;45408;52.686;7.310;2024-02-21T01:58:46;36.53;;;17.42;;
59585;SDS011;45408;52.686;7.310;2024-02-21T02:03:46;33.95;;;10.25;;
59585;SDS011;45408;52.686;7.310;2024-02-21T02:06:13;31.85;;;13.90;;
59585;SDS011;45408;52.686;7.310;2024-02-21T02:08:40;22.33;;;9.68;;
59585;SDS011;45408;52.686;7.310;2024-02-21T02:11:07;27.13;;;11.73;;
59585;SDS011;45408;52.686;7.310;2024-02-21T02:13:34;27.30;;;11.65;;
59585;SDS011;45408;52.686;7.310;2024-02-21T02:16:00;29.30;;;11.65;;
59585;SDS011;45408;52.686;7.310;2024-02-21T02:18:27;26.55;;;13.00;;
59585;SDS011;45408;52.686;7.310;2024-02-21T02:20:53;26.90;;;10.07;;
59585;SDS011;45408;52.686;7.310;2024-02-21T02:23:30;31.90;;;12.10;;
59585;SDS011;45408;52.686;7.310;2024-02-21T02:25:57;26.13;;;10.68;;
59585;SDS011;45408;52.686;7.310;2024-02-21T02:28:24;31.85;;;13.60;;
59585;SDS011;45408;52.686;7.310;2024-02-21T02:30:51;36.97;;;14.00;;
59585;SDS011;45408;52.686;7.310;2024-02-21T02:33:18;26.95;;;13.23;;
59585;SDS011;45408;52.686;7.310;2024-02-21T02:35:44;21.08;;;10.23;;
59585;SDS011;45408;52.686;7.310;2024-02-21T02:38:11;32.75;;;15.30;;
59585;SDS011;45408;52.686;7.310;2024-02-21T02:40:39;31.10;;;14.23;;
59585;SDS011;45408;52.686;7.310;2024-02-21T02:43:07;32.40;;;13.18;;
59585;SDS011;45408;52.686;7.310;2024-02-21T02:45:33;29.77;;;15.18;;
59585;SDS011;45408;52.686;7.310;2024-02-21T02:48:00;24.05;;;11.35;;
59585;SDS011;45408;52.686;7.310;2024-02-21T02:50:27;26.83;;;13.45;;
59585;SDS011;45408;52.686;7.310;2024-02-21T02:52:54;23.77;;;11.07;;
59585;SDS011;45408;52.686;7.310;2024-02-21T02:55:21;26.92;;;11.57;;
59585;SDS011;45408;52.686;7.310;2024-02-21T02:57:48;20.33;;;10.35;;
59585;SDS011;45408;52.686;7.310;2024-02-21T03:00:14;27.30;;;11.25;;
59585;SDS011;45408;52.686;7.310;2024-02-21T03:02:42;24.58;;;11.60;;
59585;SDS011;45408;52.686;7.310;2024-02-21T03:05:16;25.67;;;11.27;;
59585;SDS011;45408;52.686;7.310;2024-02-21T03:07:44;21.25;;;10.50;;
59585;SDS011;45408;52.686;7.310;2024-02-21T03:10:11;33.53;;;12.98;;
59585;SDS011;45408;52.686;7.310;2024-02-21T03:12:38;32.00;;;15.00;;
59585;SDS011;45408;52.686;7.310;2024-02-21T03:15:06;33.00;;;14.15;;
59585;SDS011;45408;52.686;7.310;2024-02-21T03:17:32;34.10;;;14.43;;
59585;SDS011;45408;52.686;7.310;2024-02-21T03:20:02;29.55;;;13.77;;
59585;SDS011;45408;52.686;7.310;2024-02-21T03:22:32;24.85;;;11.07;;
59585;SDS011;45408;52.686;7.310;2024-02-21T03:24:59;30.77;;;13.40;;
59585;SDS011;45408;52.686;7.310;2024-02-21T03:27:25;38.38;;;15.07;;
59585;SDS011;45408;52.686;7.310;2024-02-21T03:29:52;27.98;;;13.23;;
59585;SDS011;45408;52.686;7.310;2024-02-21T03:32:18;18.77;;;10.27;;
59585;SDS011;45408;52.686;7.310;2024-02-21T03:34:45;28.25;;;13.63;;
59585;SDS011;45408;52.686;7.310;2024-02-21T03:37:15;26.83;;;13.95;;
59585;SDS011;45408;52.686;7.310;2024-02-21T03:39:41;21.70;;;10.95;;
59585;SDS011;45408;52.686;7.310;2024-02-21T03:42:08;21.20;;;12.45;;
59585;SDS011;45408;52.686;7.310;2024-02-21T03:44:35;22.60;;;11.75;;
59585;SDS011;45408;52.686;7.310;2024-02-21T03:47:01;23.75;;;10.82;;
59585;SDS011;45408;52.686;7.310;2024-02-21T03:49:28;22.27;;;11.30;;
59585;SDS011;45408;52.686;7.310;2024-02-21T03:51:55;25.15;;;13.00;;
59585;SDS011;45408;52.686;7.310;2024-02-21T03:54:22;33.20;;;12.50;;
59585;SDS011;45408;52.686;7.310;2024-02-21T03:56:49;35.03;;;16.73;;
59585;SDS011;45408;52.686;7.310;2024-02-21T03:59:15;22.60;;;10.57;;
59585;SDS011;45408;52.686;7.310;2024-02-21T04:01:42;25.63;;;10.93;;
59585;SDS011;45408;52.686;7.310;2024-02-21T04:04:09;34.75;;;13.38;;
59585;SDS011;45408;52.686;7.310;2024-02-21T04:06:36;31.48;;;13.52;;
59585;SDS011;45408;52.686;7.310;2024-02-21T04:09:02;28.65;;;13.23;;
59585;SDS011;45408;52.686;7.310;2024-02-21T04:11:29;23.55;;;10.82;;
59585;SDS011;45408;52.686;7.310;2024-02-21T04:13:56;23.98;;;10.73;;
59585;SDS011;45408;52.686;7.310;2024-02-21T04:16:23;20.63;;;11.05;;
59585;SDS011;45408;52.686;7.310;2024-02-21T04:18:50;30.42;;;13.80;;
59585;SDS011;45408;52.686;7.310;2024-02-21T04:21:16;24.98;;;10.45;;
59585;SDS011;45408;52.686;7.310;2024-02-21T04:23:43;33.85;;;16.10;;
59585;SDS011;45408;52.686;7.310;2024-02-21T04:26:09;20.27;;;10.60;;
59585;SDS011;45408;52.686;7.310;2024-02-21T04:28:36;29.08;;;14.25;;
59585;SDS011;45408;52.686;7.310;2024-02-21T04:31:02;31.92;;;13.30;;
59585;SDS011;45408;52.686;7.310;2024-02-21T04:33:29;24.67;;;12.88;;
59585;SDS011;45408;52.686;7.310;2024-02-21T04:35:55;26.52;;;11.90;;
59585;SDS011;45408;52.686;7.310;2024-02-21T04:38:22;19.23;;;11.95;;
59585;SDS011;45408;52.686;7.310;2024-02-21T04:40:48;22.73;;;11.30;;
59585;SDS011;45408;52.686;7.310;2024-02-21T04:43:15;38.03;;;16.52;;
59585;SDS011;45408;52.686;7.310;2024-02-21T04:45:42;28.13;;;9.98;;
59585;SDS011;45408;52.686;7.310;2024-02-21T04:48:11;40.97;;;14.65;;
59585;SDS011;45408;52.686;7.310;2024-02-21T04:50:38;28.42;;;13.18;;
59585;SDS011;45408;52.686;7.310;2024-02-21T04:53:04;25.33;;;11.07;;
59585;SDS011;45408;52.686;7.310;2024-02-21T04:55:31;27.92;;;13.05;;
59585;SDS011;45408;52.686;7.310;2024-02-21T04:57:57;34.45;;;14.88;;
59585;SDS011;45408;52.686;7.310;2024-02-21T05:00:24;19.15;;;11.27;;
59585;SDS011;45408;52.686;7.310;2024-02-21T05:02:51;28.65;;;10.85;;
59585;SDS011;45408;52.686;7.310;2024-02-21T05:05:17;27.83;;;11.45;;
59585;SDS011;45408;52.686;7.310;2024-02-21T05:07:44;28.38;;;13.95;;
59585;SDS011;45408;52.686;7.310;2024-02-21T05:10:11;36.58;;;15.07;;
59585;SDS011;45408;52.686;7.310;2024-02-21T05:12:37;25.10;;;12.25;;
59585;SDS011;45408;52.686;7.310;2024-02-21T05:15:04;35.67;;;14.52;;
59585;SDS011;45408;52.686;7.310;2024-02-21T05:17:31;28.90;;;12.25;;
59585;SDS011;45408;52.686;7.310;2024-02-21T05:19:58;39.03;;;15.93;;
59585;SDS011;45408;52.686;7.310;2024-02-21T05:22:25;34.78;;;14.50;;
59585;SDS011;45408;52.686;7.310;2024-02-21T05:24:51;35.92;;;16.33;;
59585;SDS011;45408;52.686;7.310;2024-02-21T05:27:18;24.33;;;12.27;;
59585;SDS011;45408;52.686;7.310;2024-02-21T05:29:44;23.42;;;12.20;;
59585;SDS011;45408;52.686;7.310;2024-02-21T05:32:11;26.70;;;12.52;;
59585;SDS011;45408;52.686;7.310;2024-02-21T05:34:37;25.40;;;11.95;;
59585;SDS011;45408;52.686;7.310;2024-02-21T05:37:04;27.42;;;11.95;;
59585;SDS011;45408;52.686;7.310;2024-02-21T05:39:30;27.77;;;14.32;;
59585;SDS011;45408;52.686;7.310;2024-02-21T05:41:57;34.22;;;15.82;;
59585;SDS011;45408;52.686;7.310;2024-02-21T05:44:24;23.67;;;10.90;;
59585;SDS011;45408;52.686;7.310;2024-02-21T05:46:50;18.80;;;9.88;;
59585;SDS011;45408;52.686;7.310;2024-02-21T05:49:17;24.20;;;10.52;;
59585;SDS011;45408;52.686;7.310;2024-02-21T05:51:43;24.85;;;11.07;;
59585;SDS011;45408;52.686;7.310;2024-02-21T05:54:10;37.15;;;13.20;;
59585;SDS011;45408;52.686;7.310;2024-02-21T05:56:43;32.72;;;14.68;;
59585;SDS011;45408;52.686;7.310;2024-02-21T05:59:10;32.58;;;13.88;;
59585;SDS011;45408;52.686;7.310;2024-02-21T06:01:37;25.92;;;11.35;;
59585;SDS011;45408;52.686;7.310;2024-02-21T06:04:04;32.47;;;15.13;;
59585;SDS011;45408;52.686;7.310;2024-02-21T06:06:31;33.35;;;11.75;;
59585;SDS011;45408;52.686;7.310;2024-02-21T06:08:57;37.72;;;14.23;;
59585;SDS011;45408;52.686;7.310;2024-02-21T06:11:25;29.80;;;11.98;;
59585;SDS011;45408;52.686;7.310;2024-02-21T06:13:51;25.73;;;11.30;;
59585;SDS011;45408;52.686;7.310;2024-02-21T06:16:18;25.42;;;9.77;;
59585;SDS011;45408;52.686;7.310;2024-02-21T06:18:44;29.92;;;12.02;;
59585;SDS011;45408;52.686;7.310;2024-02-21T06:21:11;24.88;;;10.18;;
59585;SDS011;45408;52.686;7.310;2024-02-21T06:23:39;26.95;;;12.88;;
59585;SDS011;45408;52.686;7.310;2024-02-21T06:26:05;25.40;;;12.32;;
59585;SDS011;45408;52.686;7.310;2024-02-21T06:28:32;28.70;;;11.00;;
59585;SDS011;45408;52.686;7.310;2024-02-21T06:30:59;19.92;;;10.00;;
59585;SDS011;45408;52.686;7.310;2024-02-21T06:33:25;29.13;;;13.23;;
59585;SDS011;45408;52.686;7.310;2024-02-21T06:35:52;29.25;;;11.07;;
59585;SDS011;45408;52.686;7.310;2024-02-21T06:38:21;21.58;;;10.38;;
59585;SDS011;45408;52.686;7.310;2024-02-21T06:40:48;33.13;;;12.57;;
59585;SDS011;45408;52.686;7.310;2024-02-21T06:43:18;34.53;;;12.45;;
59585;SDS011;45408;52.686;7.310;2024-02-21T06:45:45;22.75;;;11.65;;
59585;SDS011;45408;52.686;7.310;2024-02-21T06:48:17;29.65;;;13.65;;
59585;SDS011;45408;52.686;7.310;2024-02-21T06:50:44;21.92;;;10.43;;
59585;SDS011;45408;52.686;7.310;2024-02-21T06:53:11;22.75;;;10.18;;
59585;SDS011;45408;52.686;7.310;2024-02-21T06:55:38;23.80;;;11.25;;
59585;SDS011;45408;52.686;7.310;2024-02-21T06:58:05;29.60;;;13.25;;
59585;SDS011;45408;52.686;7.310;2024-02-21T07:00:34;23.60;;;9.30;;
59585;SDS011;45408;52.686;7.310;2024-02-21T07:03:01;27.67;;;10.85;;
59585;SDS011;45408;52.686;7.310;2024-02-21T07:05:27;30.30;;;12.48;;
59585;SDS011;45408;52.686;7.310;2024-02-21T07:07:54;30.05;;;10.73;;
59585;SDS011;45408;52.686;7.310;2024-02-21T07:10:20;24.42;;;9.70;;
59585;SDS011;45408;52.686;7.310;2024-02-21T07:12:47;24.73;;;10.65;;
59585;SDS011;45408;52.686;7.310;2024-02-21T07:15:14;30.83;;;12.20;;
59585;SDS011;45408;52.686;7.310;2024-02-21T07:17:42;39.88;;;14.95;;
59585;SDS011;45408;52.686;7.310;2024-02-21T07:20:09;21.17;;;10.18;;
59585;SDS011;45408;52.686;7.310;2024-02-21T07:22:36;34.30;;;15.93;;
59585;SDS011;45408;52.686;7.310;2024-02-21T07:25:02;28.17;;;12.00;;
59585;SDS011;45408;52.686;7.310;2024-02-21T07:27:32;17.83;;;9.45;;
59585;SDS011;45408;52.686;7.310;2024-02-21T07:29:59;34.00;;;16.27;;
59585;SDS011;45408;52.686;7.310;2024-02-21T07:32:27;25.90;;;12.93;;
59585;SDS011;45408;52.686;7.310;2024-02-21T07:34:54;22.38;;;10.93;;
59585;SDS011;45408;52.686;7.310;2024-02-21T07:37:21;24.02;;;11.90;;
59585;SDS011;45408;52.686;7.310;2024-02-21T07:39:47;16.90;;;9.07;;
59585;SDS011;45408;52.686;7.310;2024-02-21T07:42:14;20.67;;;10.05;;
59585;SDS011;45408;52.686;7.310;2024-02-21T07:44:41;24.17;;;11.20;;
59585;SDS011;45408;52.686;7.310;2024-02-21T07:47:08;20.10;;;8.52;;
59585;SDS011;45408;52.686;7.310;2024-02-21T07:49:44;24.65;;;9.70;;
59585;SDS011;45408;52.686;7.310;2024-02-21T07:52:12;20.75;;;10.50;;
59585;SDS011;45408;52.686;7.310;2024-02-21T07:54:38;29.35;;;10.18;;
59585;SDS011;45408;52.686;7.310;2024-02-21T07:57:05;19.08;;;10.07;;
59585;SDS011;45408;52.686;7.310;2024-02-21T07:59:31;25.65;;;13.80;;
59585;SDS011;45408;52.686;7.310;2024-02-21T08:01:58;21.63;;;11.23;;
59585;SDS011;45408;52.686;7.310;2024-02-21T08:04:25;21.60;;;11.80;;
59585;SDS011;45408;52.686;7.310;2024-02-21T08:06:55;21.83;;;10.10;;
59585;SDS011;45408;52.686;7.310;2024-02-21T08:09:22;18.80;;;7.47;;
59585;SDS011;45408;52.686;7.310;2024-02-21T08:11:49;22.75;;;8.77;;
59585;SDS011;45408;52.686;7.310;2024-02-21T08:14:15;21.65;;;10.55;;
59585;SDS011;45408;52.686;7.310;2024-02-21T08:16:46;18.17;;;9.70;;
59585;SDS011;45408;52.686;7.310;2024-02-21T08:19:13;20.00;;;8.90;;
59585;SDS011;45408;52.686;7.310;2024-02-21T08:21:40;25.65;;;9.52;;
59585;SDS011;45408;52.686;7.310;2024-02-21T08:24:06;20.33;;;11.05;;
59585;SDS011;45408;52.686;7.310;2024-02-21T08:26:32;20.25;;;11.25;;
59585;SDS011;45408;52.686;7.310;2024-02-21T08:28:59;25.50;;;11.30;;
59585;SDS011;45408;52.686;7.310;2024-02-21T08:31:27;20.75;;;9.00;;
59585;SDS011;45408;52.686;7.310;2024-02-21T08:33:57;19.48;;;8.95;;
59585;SDS011;45408;52.686;7.310;2024-02-21T08:36:35;23.13;;;10.98;;
59585;SDS011;45408;52.686;7.310;2024-02-21T08:39:02;17.35;;;6.97;;
59585;SDS011;45408;52.686;7.310;2024-02-21T08:41:32;23.92;;;10.70;;
59585;SDS011;45408;52.686;7.310;2024-02-21T08:44:19;25.30;;;9.98;;
59585;SDS011;45408;52.686;7.310;2024-02-21T08:46:46;21.73;;;9.45;;
59585;SDS011;45408;52.686;7.310;2024-02-21T08:49:13;25.30;;;10.75;;
59585;SDS011;45408;52.686;7.310;2024-02-21T08:51:40;20.63;;;9.75;;
59585;SDS011;45408;52.686;7.310;2024-02-21T08:54:07;14.68;;;7.45;;
59585;SDS011;45408;52.686;7.310;2024-02-21T08:56:34;27.63;;;13.38;;
59585;SDS011;45408;52.686;7.310;2024-02-21T08:59:01;13.40;;;7.38;;
59585;SDS011;45408;52.686;7.310;2024-02-21T09:01:28;25.77;;;10.70;;
59585;SDS011;45408;52.686;7.310;2024-02-21T09:03:55;22.63;;;8.02;;
59585;SDS011;45408;52.686;7.310;2024-02-21T09:06:22;17.30;;;8.77;;
59585;SDS011;45408;52.686;7.310;2024-02-21T09:08:49;27.80;;;11.35;;
59585;SDS011;45408;52.686;7.310;2024-02-21T09:11:16;22.98;;;10.38;;
59585;SDS011;45408;52.686;7.310;2024-02-21T09:13:43;29.83;;;12.45;;
59585;SDS011;45408;52.686;7.310;2024-02-21T09:16:09;21.42;;;7.97;;
59585;SDS011;45408;52.686;7.310;2024-02-21T09:18:36;19.38;;;8.52;;
59585;SDS011;45408;52.686;7.310;2024-02-21T09:21:03;13.85;;;7.30;;
59585;SDS011;45408;52.686;7.310;2024-02-21T09:23:30;16.35;;;8.80;;
59585;SDS011;45408;52.686;7.310;2024-02-21T09:25:58;21.20;;;10.00;;
59585;SDS011;45408;52.686;7.310;2024-02-21T09:28:27;20.67;;;10.75;;
59585;SDS011;45408;52.686;7.310;2024-02-21T09:30:53;22.73;;;9.50;;
59585;SDS011;45408;52.686;7.310;2024-02-21T09:33:20;22.73;;;9.00;;
59585;SDS011;45408;52.686;7.310;2024-02-21T09:35:57;18.15;;;9.27;;
59585;SDS011;45408;52.686;7.310;2024-02-21T09:38:24;18.80;;;8.85;;
59585;SDS011;45408;52.686;7.310;2024-02-21T09:40:54;17.60;;;8.38;;
59585;SDS011;45408;52.686;7.310;2024-02-21T09:43:30;26.48;;;10.00;;
59585;SDS011;45408;52.686;7.310;2024-02-21T09:45:57;19.48;;;8.35;;
59585;SDS011;45408;52.686;7.310;2024-02-21T09:48:42;16.48;;;7.43;;
59585;SDS011;45408;52.686;7.310;2024-02-21T09:51:19;18.58;;;7.28;;
59585;SDS011;45408;52.686;7.310;2024-02-21T09:53:47;30.35;;;12.40;;
59585;SDS011;45408;52.686;7.310;2024-02-21T09:56:27;22.33;;;8.23;;
59585;SDS011;45408;52.686;7.310;2024-02-21T09:58:54;28.15;;;12.00;;
59585;SDS011;45408;52.686;7.310;2024-02-21T10:01:21;16.40;;;7.28;;
59585;SDS011;45408;52.686;7.310;2024-02-21T10:03:59;18.48;;;8.10;;
59585;SDS011;45408;52.686;7.310;2024-02-21T10:06:26;29.13;;;10.07;;
59585;SDS011;45408;52.686;7.310;2024-02-21T10:08:53;19.50;;;9.90;;
59585;SDS011;45408;52.686;7.310;2024-02-21T10:11:23;11.38;;;6.18;;
59585;SDS011;45408;52.686;7.310;2024-02-21T10:13:51;18.83;;;8.85;;
59585;SDS011;45408;52.686;7.310;2024-02-21T10:16:18;13.95;;;6.28;;
59585;SDS011;45408;52.686;7.310;2024-02-21T10:18:44;16.83;;;7.43;;
59585;SDS011;45408;52.686;7.310;2024-02-21T10:21:11;12.27;;;6.35;;
59585;SDS011;45408;52.686;7.310;2024-02-21T10:23:42;14.75;;;6.53;;
59585;SDS011;45408;52.686;7.310;2024-02-21T10:26:12;20.35;;;7.95;;
59585;SDS011;45408;52.686;7.310;2024-02-21T10:28:39;17.80;;;6.40;;
59585;SDS011;45408;52.686;7.310;2024-02-21T10:31:08;14.63;;;6.80;;
59585;SDS011;45408;52.686;7.310;2024-02-21T10:33:36;14.23;;;6.60;;
59585;SDS011;45408;52.686;7.310;2024-02-21T10:36:10;15.15;;;6.13;;
59585;SDS011;45408;52.686;7.310;2024-02-21T10:38:37;11.48;;;6.13;;
59585;SDS011;45408;52.686;7.310;2024-02-21T10:41:07;20.40;;;7.68;;
59585;SDS011;45408;52.686;7.310;2024-02-21T10:43:40;15.25;;;5.85;;
59585;SDS011;45408;52.686;7.310;2024-02-21T10:46:07;12.63;;;5.68;;
59585;SDS011;45408;52.686;7.310;2024-02-21T10:48:41;14.95;;;5.75;;
59585;SDS011;45408;52.686;7.310;2024-02-21T10:58:53;12.95;;;5.70;;
59585;SDS011;45408;52.686;7.310;2024-02-21T11:01:21;14.32;;;5.93;;
59585;SDS011;45408;52.686;7.310;2024-02-21T11:03:49;17.50;;;5.97;;
59585;SDS011;45408;52.686;7.310;2024-02-21T11:08:44;7.97;;;4.60;;
59585;SDS011;45408;52.686;7.310;2024-02-21T11:11:12;12.07;;;5.03;;
59585;SDS011;45408;52.686;7.310;2024-02-21T11:16:44;10.98;;;5.22;;
59585;SDS011;45408;52.686;7.310;2024-02-21T11:19:21;10.93;;;4.95;;
59585;SDS011;45408;52.686;7.310;2024-02-21T11:21:49;14.63;;;5.32;;
59585;SDS011;45408;52.686;7.310;2024-02-21T11:29:49;9.02;;;4.75;;
59585;SDS011;45408;52.686;7.310;2024-02-21T11:32:20;12.10;;;4.20;;
59585;SDS011;45408;52.686;7.310;2024-02-21T11:34:57;10.88;;;5.03;;
59585;SDS011;45408;52.686;7.310;2024-02-21T11:37:35;10.93;;;5.40;;
59585;SDS011;45408;52.686;7.310;2024-02-21T11:40:06;7.70;;;4.75;;
59585;SDS011;45408;52.686;7.310;2024-02-21T11:42:36;8.43;;;5.28;;
59585;SDS011;45408;52.686;7.310;2024-02-21T11:45:02;8.25;;;4.70;;
59585;SDS011;45408;52.686;7.310;2024-02-21T11:47:29;19.17;;;5.40;;
59585;SDS011;45408;52.686;7.310;2024-02-21T11:49:56;10.20;;;4.72;;
59585;SDS011;45408;52.686;7.310;2024-02-21T11:52:23;7.50;;;4.50;;
59585;SDS011;45408;52.686;7.310;2024-02-21T11:54:54;8.77;;;4.53;;
59585;SDS011;45408;52.686;7.310;2024-02-21T11:59:50;9.82;;;4.88;;
59585;SDS011;45408;52.686;7.310;2024-02-21T12:02:23;8.57;;;4.07;;
59585;SDS011;45408;52.686;7.310;2024-02-21T12:04:50;10.25;;;4.45;;
59585;SDS011;45408;52.686;7.310;2024-02-21T12:07:18;11.50;;;4.97;;
59585;SDS011;45408;52.686;7.310;2024-02-21T12:09:45;9.20;;;4.57;;
59585;SDS011;45408;52.686;7.310;2024-02-21T12:12:11;12.38;;;4.35;;
59585;SDS011;45408;52.686;7.310;2024-02-21T12:14:38;9.32;;;4.47;;
59585;SDS011;45408;52.686;7.310;2024-02-21T12:17:04;10.43;;;5.00;;
59585;SDS011;45408;52.686;7.310;2024-02-21T12:19:32;9.43;;;4.18;;
59585;SDS011;45408;52.686;7.310;2024-02-21T12:21:59;10.35;;;5.38;;
59585;SDS011;45408;52.686;7.310;2024-02-21T12:24:26;8.40;;;4.35;;
59585;SDS011;45408;52.686;7.310;2024-02-21T12:26:55;7.32;;;4.45;;
59585;SDS011;45408;52.686;7.310;2024-02-21T12:29:25;10.65;;;4.40;;
59585;SDS011;45408;52.686;7.310;2024-02-21T12:31:52;7.47;;;4.75;;
59585;SDS011;45408;52.686;7.310;2024-02-21T12:34:20;8.27;;;4.20;;
59585;SDS011;45408;52.686;7.310;2024-02-21T12:37:03;9.27;;;4.18;;
59585;SDS011;45408;52.686;7.310;2024-02-21T12:39:30;9.25;;;4.10;;
59585;SDS011;45408;52.686;7.310;2024-02-21T12:41:58;7.82;;;3.45;;
59585;SDS011;45408;52.686;7.310;2024-02-21T12:44:24;6.20;;;3.88;;
59585;SDS011;45408;52.686;7.310;2024-02-21T12:46:51;4.95;;;3.03;;
59585;SDS011;45408;52.686;7.310;2024-02-21T12:49:21;11.95;;;3.15;;
59585;SDS011;45408;52.686;7.310;2024-02-21T12:51:48;6.38;;;3.80;;
59585;SDS011;45408;52.686;7.310;2024-02-21T12:54:15;8.15;;;3.30;;
59585;SDS011;45408;52.686;7.310;2024-02-21T12:56:42;5.00;;;2.97;;
59585;SDS011;45408;52.686;7.310;2024-02-21T12:59:08;6.70;;;3.20;;
59585;SDS011;45408;52.686;7.310;2024-02-21T13:01:36;5.32;;;2.60;;
59585;SDS011;45408;52.686;7.310;2024-02-21T13:04:04;6.07;;;2.95;;
59585;SDS011;45408;52.686;7.310;2024-02-21T13:06:30;4.07;;;2.67;;
59585;SDS011;45408;52.686;7.310;2024-02-21T13:08:57;4.28;;;3.10;;
59585;SDS011;45408;52.686;7.310;2024-02-21T13:11:23;5.80;;;2.42;;
59585;SDS011;45408;52.686;7.310;2024-02-21T13:13:53;5.40;;;2.42;;
59585;SDS011;45408;52.686;7.310;2024-02-21T13:16:19;8.02;;;2.67;;
59585;SDS011;45408;52.686;7.310;2024-02-21T13:18:46;6.32;;;3.03;;
59585;SDS011;45408;52.686;7.310;2024-02-21T13:21:13;7.00;;;3.60;;
59585;SDS011;45408;52.686;7.310;2024-02-21T13:23:40;7.82;;;3.53;;
59585;SDS011;45408;52.686;7.310;2024-02-21T13:26:07;6.20;;;3.42;;
59585;SDS011;45408;52.686;7.310;2024-02-21T13:28:33;4.65;;;2.90;;
59585;SDS011;45408;52.686;7.310;2024-02-21T13:31:01;5.10;;;3.22;;
59585;SDS011;45408;52.686;7.310;2024-02-21T13:33:27;7.78;;;4.38;;
59585;SDS011;45408;52.686;7.310;2024-02-21T13:35:55;7.72;;;4.22;;
59585;SDS011;45408;52.686;7.310;2024-02-21T13:38:21;5.40;;;3.28;;
59585;SDS011;45408;52.686;7.310;2024-02-21T13:40:48;8.63;;;3.63;;
59585;SDS011;45408;52.686;7.310;2024-02-21T13:43:15;9.25;;;4.90;;
59585;SDS011;45408;52.686;7.310;2024-02-21T13:45:45;8.20;;;3.28;;
59585;SDS011;45408;52.686;7.310;2024-02-21T13:48:24;11.27;;;5.07;;
59585;SDS011;45408;52.686;7.310;2024-02-21T13:50:51;8.75;;;5.38;;
59585;SDS011;45408;52.686;7.310;2024-02-21T13:53:17;9.20;;;3.72;;
59585;SDS011;45408;52.686;7.310;2024-02-21T13:55:45;8.60;;;3.35;;
59585;SDS011;45408;52.686;7.310;2024-02-21T13:58:12;9.40;;;5.35;;
59585;SDS011;45408;52.686;7.310;2024-02-21T14:00:38;9.13;;;4.80;;
59585;SDS011;45408;52.686;7.310;2024-02-21T14:03:05;7.63;;;3.95;;
59585;SDS011;45408;52.686;7.310;2024-02-21T14:05:31;13.30;;;4.45;;
59585;SDS011;45408;52.686;7.310;2024-02-21T14:07:58;9.65;;;4.07;;
59585;SDS011;45408;52.686;7.310;2024-02-21T14:10:24;10.52;;;3.67;;
59585;SDS011;45408;52.686;7.310;2024-02-21T14:12:51;10.63;;;3.35;;
59585;SDS011;45408;52.686;7.310;2024-02-21T14:15:18;12.30;;;4.72;;
59585;SDS011;45408;52.686;7.310;2024-02-21T14:17:44;8.10;;;2.97;;
59585;SDS011;45408;52.686;7.310;2024-02-21T14:20:11;6.97;;;3.25;;
59585;SDS011;45408;52.686;7.310;2024-02-21T14:22:43;6.60;;;3.00;;
59585;SDS011;45408;52.686;7.310;2024-02-21T14:25:09;9.50;;;4.80;;
59585;SDS011;45408;52.686;7.310;2024-02-21T14:27:36;11.18;;;4.45;;
59585;SDS011;45408;52.686;7.310;2024-02-21T14:30:03;10.18;;;5.03;;
59585;SDS011;45408;52.686;7.310;2024-02-21T14:32:30;9.95;;;3.85;;
59585;SDS011;45408;52.686;7.310;2024-02-21T14:34:57;7.18;;;3.38;;
59585;SDS011;45408;52.686;7.310;2024-02-21T14:37:26;9.88;;;3.85;;
59585;SDS011;45408;52.686;7.310;2024-02-21T14:39:52;12.45;;;4.25;;
59585;SDS011;45408;52.686;7.310;2024-02-21T14:42:19;10.00;;;3.35;;
59585;SDS011;45408;52.686;7.310;2024-02-21T14:44:45;7.85;;;4.00;;
59585;SDS011;45408;52.686;7.310;2024-02-21T14:47:12;13.00;;;3.90;;
59585;SDS011;45408;52.686;7.310;2024-02-21T14:49:38;11.23;;;3.78;;
59585;SDS011;45408;52.686;7.310;2024-02-21T14:52:05;8.10;;;4.15;;
59585;SDS011;45408;52.686;7.310;2024-02-21T14:54:32;11.02;;;4.63;;